createdAt,value
2017-09-19T00:00:41.455Z,92.50
2017-09-19T00:03:08.901Z,92.30
2017-09-19T00:05:37.113Z,92.20
2017-09-19T00:08:04.570Z,92.20
2017-09-19T00:10:32.017Z,92.20
2017-09-19T00:12:59.474Z,92.40
2017-09-19T00:15:26.917Z,92.00
2017-09-19T00:17:54.375Z,92.10
2017-09-19T00:20:21.829Z,92.20
2017-09-19T00:22:49.293Z,92.50
2017-09-19T00:25:16.739Z,92.60
2017-09-19T00:27:44.958Z,92.40
2017-09-19T00:30:12.413Z,92.30
2017-09-19T00:32:39.873Z,92.30
2017-09-19T00:35:07.412Z,92.10
2017-09-19T00:37:34.850Z,92.10
2017-09-19T00:40:02.345Z,92.10
2017-09-19T00:42:29.782Z,92.10
2017-09-19T00:44:57.234Z,92.40
2017-09-19T00:47:24.734Z,92.00
2017-09-19T00:49:52.201Z,92.00
2017-09-19T00:52:19.641Z,92.50
2017-09-19T00:54:47.172Z,92.10
2017-09-19T00:57:14.615Z,92.10
2017-09-19T00:59:42.065Z,92.10
2017-09-19T01:02:09.512Z,92.10
2017-09-19T01:04:37.737Z,92.30
2017-09-19T01:07:05.205Z,92.30
2017-09-19T01:09:32.847Z,92.50
2017-09-19T01:12:00.306Z,92.40
2017-09-19T01:14:27.757Z,92.20
2017-09-19T01:16:55.218Z,92.20
2017-09-19T01:19:22.706Z,92.20
2017-09-19T01:21:50.163Z,92.30
2017-09-19T01:24:17.622Z,92.50
2017-09-19T01:26:45.071Z,92.60
2017-09-19T01:29:12.527Z,92.60
2017-09-19T01:31:40.010Z,92.70
2017-09-19T01:34:08.227Z,92.90
2017-09-19T01:36:35.677Z,92.90
2017-09-19T01:39:03.129Z,93.00
2017-09-19T01:41:30.586Z,93.00
2017-09-19T01:43:58.037Z,93.10
2017-09-19T01:46:25.489Z,93.20
2017-09-19T01:48:52.950Z,93.30
2017-09-19T01:51:20.403Z,93.40
2017-09-19T01:53:47.863Z,93.40
2017-09-19T01:56:15.317Z,93.60
2017-09-19T01:58:43.535Z,93.60
2017-09-19T02:01:10.992Z,93.60
2017-09-19T02:03:38.493Z,93.60
2017-09-19T02:06:06.809Z,93.80
2017-09-19T02:08:34.249Z,93.70
2017-09-19T02:11:01.705Z,93.50
2017-09-19T02:13:29.155Z,93.40
2017-09-19T02:15:57.389Z,93.80
2017-09-19T02:18:24.829Z,93.80
2017-09-19T02:20:52.273Z,93.80
2017-09-19T02:23:19.738Z,93.90
2017-09-19T02:25:47.199Z,93.90
2017-09-19T02:28:14.642Z,94.00
2017-09-19T02:30:42.098Z,93.90
2017-09-19T02:33:09.552Z,94.20
2017-09-19T02:35:36.995Z,93.70
2017-09-19T02:38:04.455Z,93.70
2017-09-19T02:40:31.925Z,93.80
2017-09-19T02:42:59.385Z,93.80
2017-09-19T02:45:26.830Z,93.80
2017-09-19T02:47:54.314Z,93.80
2017-09-19T02:50:21.751Z,94.00
2017-09-19T02:52:49.210Z,94.10
2017-09-19T02:55:16.677Z,94.10
2017-09-19T02:57:44.122Z,94.30
2017-09-19T03:00:11.687Z,94.20
2017-09-19T03:02:39.157Z,94.20
2017-09-19T03:05:06.605Z,94.30
2017-09-19T03:07:34.057Z,94.30
2017-09-19T03:10:01.516Z,94.40
2017-09-19T03:12:28.969Z,94.50
2017-09-19T03:14:56.428Z,94.40
2017-09-19T03:17:23.881Z,94.40
2017-09-19T03:19:51.346Z,94.30
2017-09-19T03:22:18.794Z,94.10
2017-09-19T03:24:46.245Z,94.00
2017-09-19T03:27:13.698Z,93.80
2017-09-19T03:29:41.150Z,93.90
2017-09-19T03:32:08.603Z,93.80
2017-09-19T03:34:36.831Z,93.50
2017-09-19T03:37:04.284Z,93.50
2017-09-19T03:39:31.749Z,93.40
2017-09-19T03:41:59.194Z,93.30
2017-09-19T03:44:26.654Z,93.50
2017-09-19T03:46:54.095Z,93.60
2017-09-19T03:49:21.545Z,93.60
2017-09-19T03:51:48.999Z,93.90
2017-09-19T03:54:16.441Z,94.20
2017-09-19T03:56:43.895Z,94.40
2017-09-19T03:59:12.105Z,94.80
2017-09-19T04:01:39.566Z,94.80
2017-09-19T04:04:07.023Z,95.20
2017-09-19T04:06:34.474Z,95.10
2017-09-19T04:09:01.930Z,94.80
2017-09-19T04:11:29.389Z,94.80
2017-09-19T04:13:56.870Z,95.20
2017-09-19T04:16:24.321Z,95.10
2017-09-19T04:18:51.777Z,95.00
2017-09-19T04:21:19.226Z,95.30
2017-09-19T04:23:46.678Z,95.30
2017-09-19T04:26:14.137Z,95.40
2017-09-19T04:28:41.590Z,95.70
2017-09-19T04:31:09.058Z,95.90
2017-09-19T04:33:36.523Z,96.10
2017-09-19T04:36:03.997Z,96.20
2017-09-19T04:38:31.438Z,96.40
2017-09-19T04:40:58.895Z,96.70
2017-09-19T04:43:26.349Z,96.80
2017-09-19T04:45:53.798Z,97.00
2017-09-19T04:48:21.257Z,97.10
2017-09-19T04:50:48.719Z,97.00
2017-09-19T04:53:16.178Z,97.10
2017-09-19T04:55:43.638Z,97.00
2017-09-19T04:58:11.097Z,97.20
2017-09-19T05:00:38.546Z,97.30
2017-09-19T05:03:06.014Z,97.30
2017-09-19T05:05:33.466Z,97.20
2017-09-19T05:08:00.922Z,97.10
2017-09-19T05:10:28.378Z,97.10
2017-09-19T05:12:55.837Z,97.30
2017-09-19T05:15:24.057Z,97.30
2017-09-19T05:17:51.505Z,97.30
2017-09-19T05:20:19.730Z,97.10
2017-09-19T05:22:47.186Z,97.00
2017-09-19T05:25:14.650Z,96.90
2017-09-19T05:27:42.106Z,96.90
2017-09-19T05:30:09.652Z,96.60
2017-09-19T05:32:37.096Z,96.20
2017-09-19T05:35:04.550Z,96.30
2017-09-19T05:37:32.003Z,96.60
2017-09-19T05:40:00.222Z,95.60
2017-09-19T05:42:27.682Z,95.60
2017-09-19T05:44:55.141Z,95.50
2017-09-19T05:47:22.594Z,95.20
2017-09-19T05:49:50.054Z,94.70
2017-09-19T05:52:17.522Z,94.90
2017-09-19T05:54:45.003Z,94.90
2017-09-19T05:57:13.221Z,94.80
2017-09-19T05:59:40.678Z,94.80
2017-09-19T06:02:08.138Z,94.80
2017-09-19T06:04:35.594Z,95.10
2017-09-19T06:07:03.049Z,94.80
2017-09-19T06:09:32.426Z,94.90
2017-09-19T06:12:00.651Z,94.50
2017-09-19T06:14:28.105Z,94.50
2017-09-19T06:16:55.563Z,94.70
2017-09-19T06:19:23.009Z,94.80
2017-09-19T06:21:50.486Z,93.50
2017-09-19T06:24:17.945Z,93.10
2017-09-19T06:26:45.413Z,92.80
2017-09-19T06:29:12.931Z,92.40
2017-09-19T06:31:40.486Z,92.00
2017-09-19T06:34:07.938Z,92.30
2017-09-19T06:36:35.397Z,92.50
2017-09-19T06:39:02.846Z,92.80
2017-09-19T06:41:30.341Z,93.00
2017-09-19T06:43:57.798Z,93.10
2017-09-19T06:46:25.244Z,93.60
2017-09-19T06:48:52.760Z,92.90
2017-09-19T06:51:21.018Z,92.50
2017-09-19T06:53:48.476Z,92.50
2017-09-19T06:56:16.707Z,92.30
2017-09-19T06:58:44.173Z,92.20
2017-09-19T07:01:11.629Z,92.00
2017-09-19T07:03:39.086Z,91.70
2017-09-19T07:06:06.546Z,91.70
2017-09-19T07:08:34.002Z,91.30
2017-09-19T07:11:01.462Z,90.20
2017-09-19T07:13:28.914Z,89.10
2017-09-19T07:15:56.374Z,89.50
2017-09-19T07:18:23.912Z,90.00
2017-09-19T07:20:51.374Z,89.20
2017-09-19T07:23:18.825Z,89.70
2017-09-19T07:25:46.297Z,89.60
2017-09-19T07:28:13.745Z,89.70
2017-09-19T07:30:41.205Z,90.00
2017-09-19T07:33:08.657Z,88.00
2017-09-19T07:35:36.134Z,87.40
2017-09-19T07:38:03.590Z,87.70
2017-09-19T07:40:31.066Z,86.30
2017-09-19T07:42:58.521Z,86.90
2017-09-19T07:45:25.993Z,86.10
2017-09-19T07:47:53.451Z,85.20
2017-09-19T07:50:20.902Z,85.80
2017-09-19T07:52:48.357Z,84.90
2017-09-19T07:55:15.815Z,85.20
2017-09-19T07:57:43.278Z,83.60
2017-09-19T08:00:10.734Z,84.70
2017-09-19T08:02:38.185Z,83.90
2017-09-19T08:05:05.645Z,84.70
2017-09-19T08:07:33.093Z,84.80
2017-09-19T08:10:00.545Z,81.30
2017-09-19T08:12:28.008Z,82.70
2017-09-19T08:14:55.464Z,83.10
2017-09-19T08:17:22.918Z,83.00
2017-09-19T08:19:50.382Z,80.40
2017-09-19T08:22:17.830Z,80.90
2017-09-19T08:24:45.274Z,79.40
2017-09-19T08:27:12.748Z,80.00
2017-09-19T08:29:40.271Z,80.60
2017-09-19T08:32:07.709Z,80.10
2017-09-19T08:34:35.185Z,79.00
2017-09-19T08:37:02.641Z,76.80
2017-09-19T08:39:30.201Z,77.70
2017-09-19T08:41:57.641Z,77.40
2017-09-19T08:44:25.113Z,78.80
2017-09-19T08:46:52.675Z,80.00
2017-09-19T08:49:20.128Z,80.20
2017-09-19T08:51:47.593Z,78.80
2017-09-19T08:54:15.078Z,78.50
2017-09-19T08:56:42.534Z,77.20
2017-09-19T08:59:09.995Z,78.30
2017-09-19T09:01:37.462Z,79.20
2017-09-19T09:04:05.328Z,79.30
2017-09-19T09:06:32.794Z,77.00
2017-09-19T09:09:00.246Z,75.20
2017-09-19T09:11:27.707Z,74.00
2017-09-19T09:13:55.161Z,75.10
2017-09-19T09:16:22.625Z,76.20
2017-09-19T09:18:50.086Z,76.80
2017-09-19T09:21:17.583Z,78.00
2017-09-19T09:23:45.035Z,77.90
2017-09-19T09:26:12.485Z,76.90
2017-09-19T09:28:39.946Z,76.80
2017-09-19T09:31:07.400Z,74.40
2017-09-19T09:33:34.862Z,74.90
2017-09-19T09:36:02.317Z,74.00
2017-09-19T09:38:29.788Z,73.40
2017-09-19T09:40:57.234Z,72.70
2017-09-19T09:43:24.693Z,73.30
2017-09-19T09:45:52.159Z,73.80
2017-09-19T09:48:19.610Z,74.40
2017-09-19T09:50:47.062Z,75.00
2017-09-19T09:53:14.527Z,75.80
2017-09-19T09:55:41.973Z,76.20
2017-09-19T09:58:09.439Z,75.50
2017-09-19T10:00:36.891Z,76.30
2017-09-19T10:03:04.350Z,75.40
2017-09-19T10:05:31.806Z,75.70
2017-09-19T10:07:59.268Z,73.50
2017-09-19T10:10:26.736Z,73.30
2017-09-19T10:12:54.201Z,72.50
2017-09-19T10:15:21.659Z,72.60
2017-09-19T10:17:49.147Z,72.30
2017-09-19T10:20:16.600Z,72.60
2017-09-19T10:22:44.055Z,73.60
2017-09-19T10:25:11.515Z,74.30
2017-09-19T10:27:39.034Z,74.20
2017-09-19T10:30:06.513Z,74.80
2017-09-19T10:32:33.957Z,75.80
2017-09-19T10:35:01.445Z,72.90
2017-09-19T10:37:28.864Z,72.20
2017-09-19T10:39:56.324Z,72.10
2017-09-19T10:42:23.781Z,71.20
2017-09-19T10:44:51.235Z,72.00
2017-09-19T10:47:18.689Z,72.80
2017-09-19T10:49:46.144Z,72.00
2017-09-19T10:52:13.593Z,72.50
2017-09-19T10:54:41.077Z,72.30
2017-09-19T10:57:09.294Z,73.40
2017-09-19T10:59:37.522Z,74.40
2017-09-19T11:02:04.974Z,73.70
2017-09-19T11:04:32.431Z,73.90
2017-09-19T11:06:59.901Z,73.70
2017-09-19T11:09:27.353Z,72.60
2017-09-19T11:11:55.575Z,71.70
2017-09-19T11:14:23.047Z,71.60
2017-09-19T11:16:51.270Z,69.50
2017-09-19T11:19:18.728Z,69.60
2017-09-19T11:21:46.183Z,71.40
2017-09-19T11:24:13.639Z,69.90
2017-09-19T11:26:41.108Z,69.80
2017-09-19T11:29:08.557Z,69.30
2017-09-19T11:31:36.025Z,69.50
2017-09-19T11:34:03.477Z,69.50
2017-09-19T11:36:30.933Z,69.70
2017-09-19T11:38:58.398Z,67.10
2017-09-19T11:41:25.861Z,68.10
2017-09-19T11:43:53.325Z,67.60
2017-09-19T11:46:20.788Z,68.60
2017-09-19T11:48:48.246Z,69.50
2017-09-19T11:51:15.714Z,69.80
2017-09-19T11:53:43.938Z,67.90
2017-09-19T11:56:11.413Z,67.90
2017-09-19T11:58:38.870Z,69.20
2017-09-19T12:01:06.335Z,70.10
2017-09-19T12:03:33.790Z,67.70
2017-09-19T12:06:01.254Z,68.30
2017-09-19T12:08:28.702Z,68.70
2017-09-19T12:10:56.158Z,69.80
2017-09-19T12:13:23.613Z,69.30
2017-09-19T12:15:51.073Z,68.10
2017-09-19T12:18:18.529Z,68.20
2017-09-19T12:20:45.991Z,67.90
2017-09-19T12:23:13.453Z,67.80
2017-09-19T12:25:40.898Z,68.40
2017-09-19T12:28:08.369Z,69.10
2017-09-19T12:30:35.846Z,68.70
2017-09-19T12:33:04.069Z,67.50
2017-09-19T12:35:31.566Z,67.50
2017-09-19T12:37:59.018Z,67.00
2017-09-19T12:40:26.479Z,67.50
2017-09-19T12:42:54.094Z,68.30
2017-09-19T12:45:21.552Z,67.30
2017-09-19T12:47:49.022Z,68.90
2017-09-19T12:50:16.479Z,69.70
2017-09-19T12:52:44.026Z,70.10
2017-09-19T12:55:11.481Z,69.60
2017-09-19T12:57:38.941Z,70.50
2017-09-19T13:00:06.428Z,70.80
2017-09-19T13:02:33.890Z,70.40
2017-09-19T13:05:01.353Z,70.10
2017-09-19T13:07:28.868Z,70.80
2017-09-19T13:09:56.326Z,71.20
2017-09-19T13:12:23.838Z,71.00
2017-09-19T13:14:51.346Z,70.40
2017-09-19T13:17:18.805Z,70.30
2017-09-19T13:19:46.262Z,71.00
2017-09-19T13:22:13.818Z,69.70
2017-09-19T13:24:41.292Z,69.40
2017-09-19T13:27:08.759Z,70.10
2017-09-19T13:29:36.213Z,67.30
2017-09-19T13:32:15.524Z,65.80
2017-09-19T13:34:42.986Z,66.20
2017-09-19T13:37:10.443Z,65.10
2017-09-19T13:39:37.894Z,65.40
2017-09-19T13:42:05.359Z,65.20
2017-09-19T13:44:32.850Z,64.50
2017-09-19T13:47:01.093Z,63.70
2017-09-19T13:49:28.645Z,63.70
2017-09-19T13:51:56.107Z,63.20
2017-09-19T13:54:23.590Z,63.40
2017-09-19T13:56:51.041Z,62.90
2017-09-19T13:59:19.273Z,62.90
2017-09-19T14:01:46.717Z,62.80
2017-09-19T14:04:14.945Z,65.50
2017-09-19T14:06:42.402Z,65.50
2017-09-19T14:09:09.855Z,66.40
2017-09-19T14:11:37.305Z,65.10
2017-09-19T14:14:04.770Z,66.00
2017-09-19T14:16:32.225Z,67.00
2017-09-19T14:18:59.698Z,66.70
2017-09-19T14:21:27.158Z,67.50
2017-09-19T14:23:54.608Z,67.20
2017-09-19T14:26:22.079Z,67.80
2017-09-19T14:28:49.545Z,66.90
2017-09-19T14:31:16.998Z,67.60
2017-09-19T14:33:44.447Z,67.00
2017-09-19T14:36:11.905Z,67.50
2017-09-19T14:38:39.370Z,69.60
2017-09-19T14:41:06.830Z,70.80
2017-09-19T14:43:34.278Z,71.80
2017-09-19T14:46:01.741Z,72.60
2017-09-19T14:48:29.222Z,73.00
2017-09-19T14:50:57.454Z,74.10
2017-09-19T14:53:24.908Z,73.90
2017-09-19T14:55:52.386Z,73.90
2017-09-19T14:58:19.842Z,74.40
2017-09-19T15:00:47.306Z,73.80
2017-09-19T15:03:14.767Z,73.90
2017-09-19T15:05:43.014Z,73.60
2017-09-19T15:08:10.466Z,73.50
2017-09-19T15:10:37.922Z,73.20
2017-09-19T15:13:05.382Z,73.30
2017-09-19T15:15:32.869Z,72.00
2017-09-19T15:18:00.322Z,73.00
2017-09-19T15:20:27.772Z,72.30
2017-09-19T15:22:55.230Z,72.70
2017-09-19T15:25:22.691Z,72.80
2017-09-19T15:27:50.147Z,73.80
2017-09-19T15:30:17.601Z,74.20
2017-09-19T15:32:45.061Z,74.50
2017-09-19T15:35:12.514Z,74.00
2017-09-19T15:37:39.969Z,74.40
2017-09-19T15:40:07.426Z,74.70
2017-09-19T15:42:34.882Z,74.50
2017-09-19T15:45:02.338Z,73.40
2017-09-19T15:47:29.798Z,73.90
2017-09-19T15:49:57.250Z,74.00
2017-09-19T15:52:24.702Z,72.70
2017-09-19T15:54:52.925Z,73.30
2017-09-19T15:57:21.158Z,72.70
2017-09-19T15:59:48.610Z,72.70
2017-09-19T16:05:09.323Z,74.20
2017-09-19T16:07:36.789Z,75.10
2017-09-19T16:10:04.347Z,75.30
2017-09-19T16:12:31.811Z,75.00
2017-09-19T16:14:59.270Z,74.30
2017-09-19T16:17:26.853Z,74.10
2017-09-19T16:19:55.078Z,75.10
2017-09-19T16:22:22.551Z,75.10
2017-09-19T16:24:50.006Z,75.50
2017-09-19T16:27:17.477Z,75.60
2017-09-19T16:29:44.924Z,76.30
2017-09-19T16:32:12.482Z,77.20
2017-09-19T16:34:39.939Z,77.40
2017-09-19T16:37:07.500Z,78.00
2017-09-19T16:39:34.970Z,78.40
2017-09-19T16:42:02.418Z,78.60
2017-09-19T16:44:29.886Z,78.90
2017-09-19T16:46:57.343Z,79.60
2017-09-19T16:49:24.798Z,80.10
2017-09-19T16:51:52.252Z,80.40
2017-09-19T16:54:19.723Z,80.90
2017-09-19T16:56:47.986Z,81.50
2017-09-19T16:59:15.442Z,81.50
2017-09-19T17:01:42.994Z,81.80
2017-09-19T17:04:10.554Z,82.30
2017-09-19T17:06:38.015Z,82.60
2017-09-19T17:09:05.476Z,83.10
2017-09-19T17:11:33.027Z,83.40
2017-09-19T17:14:00.586Z,83.50
2017-09-19T17:16:28.046Z,84.40
2017-09-19T17:18:55.526Z,84.30
2017-09-19T17:21:23.779Z,84.70
2017-09-19T17:23:51.239Z,84.70
2017-09-19T17:26:18.698Z,85.00
2017-09-19T17:28:46.255Z,85.30
2017-09-19T17:31:13.720Z,85.50
2017-09-19T17:33:41.175Z,85.90
2017-09-19T17:36:08.634Z,86.40
2017-09-19T17:38:36.189Z,86.90
2017-09-19T17:41:03.670Z,87.40
2017-09-19T17:43:31.881Z,88.20
2017-09-19T17:45:59.378Z,88.10
2017-09-19T17:48:26.934Z,88.20
2017-09-19T17:50:54.414Z,88.20
2017-09-19T17:53:22.877Z,89.20
2017-09-19T17:55:50.434Z,89.10
2017-09-19T17:58:17.897Z,89.10
2017-09-19T18:00:45.354Z,89.30
2017-09-19T18:03:12.830Z,89.50
2017-09-19T18:05:41.096Z,89.40
2017-09-19T18:08:08.657Z,89.40
2017-09-19T18:10:36.899Z,89.50
2017-09-19T18:13:04.362Z,89.50
2017-09-19T18:15:31.830Z,89.50
2017-09-19T18:17:59.310Z,89.50
2017-09-19T18:20:27.584Z,88.90
2017-09-19T18:22:55.065Z,90.00
2017-09-19T18:25:22.554Z,90.00
2017-09-19T18:27:50.035Z,90.20
2017-09-19T18:30:18.429Z,90.10
2017-09-19T18:32:46.315Z,90.20
2017-09-19T18:35:14.553Z,90.30
2017-09-19T18:37:42.039Z,90.30
2017-09-19T18:40:09.505Z,90.80
2017-09-19T18:42:36.966Z,91.20
2017-09-19T18:45:05.228Z,91.10
2017-09-19T18:47:32.689Z,91.10
2017-09-19T18:50:00.915Z,91.40
2017-09-19T18:52:28.377Z,91.40
2017-09-19T18:54:55.869Z,91.60
2017-09-19T18:57:23.361Z,91.70
2017-09-19T18:59:50.834Z,91.70
2017-09-19T19:02:18.285Z,91.80
2017-09-19T19:04:45.783Z,91.80
2017-09-19T19:07:13.241Z,92.00
2017-09-19T19:09:40.695Z,91.90
2017-09-19T19:12:08.258Z,92.00
2017-09-19T19:14:35.716Z,92.00
2017-09-19T19:17:03.195Z,92.10
2017-09-19T19:19:31.441Z,92.50
2017-09-19T19:21:58.906Z,92.10
2017-09-19T19:24:26.369Z,92.20
2017-09-19T19:26:53.826Z,92.30
2017-09-19T19:29:21.288Z,92.40
2017-09-19T19:31:48.837Z,92.60
2017-09-19T19:34:16.395Z,92.70
2017-09-19T19:36:43.950Z,92.70
2017-09-19T19:39:11.491Z,92.70
2017-09-19T19:41:38.968Z,92.70
2017-09-19T19:44:06.437Z,92.70
2017-09-19T19:46:33.920Z,92.60
2017-09-19T19:49:01.443Z,92.50
2017-09-19T19:51:28.911Z,92.40
2017-09-19T19:53:56.362Z,92.50
2017-09-19T19:56:25.418Z,92.50
2017-09-19T19:58:52.870Z,92.50
2017-09-19T20:01:20.323Z,92.50
2017-09-19T20:03:47.818Z,92.60
2017-09-19T20:06:15.324Z,92.80
2017-09-19T20:08:43.531Z,92.90
2017-09-19T20:11:11.015Z,92.90
2017-09-19T20:13:38.601Z,93.10
2017-09-19T20:16:06.051Z,93.10
2017-09-19T20:18:33.530Z,93.30
2017-09-19T20:21:01.867Z,92.90
2017-09-19T20:23:29.363Z,92.80
2017-09-19T20:25:57.577Z,92.70
2017-09-19T20:28:25.054Z,92.70
2017-09-19T20:30:52.611Z,92.50
2017-09-19T20:33:20.064Z,92.50
2017-09-19T20:35:47.571Z,92.40
2017-09-19T20:38:15.836Z,92.30
2017-09-19T20:40:44.114Z,92.30
2017-09-19T20:43:12.363Z,92.50
2017-09-19T20:45:39.922Z,92.40
2017-09-19T20:48:07.367Z,92.40
2017-09-19T20:50:34.843Z,92.40
2017-09-19T20:53:02.286Z,92.40
2017-09-19T20:55:29.755Z,92.50
2017-09-19T20:57:57.202Z,92.50
2017-09-19T21:00:24.662Z,92.40
2017-09-19T21:02:51.630Z,92.50
2017-09-19T21:05:24.925Z,92.60
2017-09-19T21:07:58.990Z,93.00
2017-09-19T21:10:32.201Z,92.60
2017-09-19T21:13:05.385Z,92.60
2017-09-19T21:15:38.447Z,92.70
2017-09-19T21:18:11.703Z,92.70
2017-09-19T21:20:39.930Z,92.90
2017-09-19T21:23:07.374Z,92.60
2017-09-19T21:25:34.862Z,92.70
2017-09-19T21:28:02.330Z,92.70
2017-09-19T21:30:29.798Z,92.70
2017-09-19T21:32:57.352Z,92.70
2017-09-19T21:35:24.806Z,92.70
2017-09-19T21:37:52.258Z,92.60
2017-09-19T21:40:19.715Z,92.60
2017-09-19T21:42:47.169Z,92.60
2017-09-19T21:45:14.657Z,92.60
2017-09-19T21:47:42.877Z,92.60
2017-09-19T21:50:10.428Z,92.60
2017-09-19T21:52:37.871Z,92.60
2017-09-19T21:55:05.322Z,92.60
2017-09-19T21:57:32.784Z,92.60
2017-09-19T22:00:00.231Z,92.60
2017-09-19T22:02:28.454Z,92.70
2017-09-19T22:04:55.939Z,92.70
2017-09-19T22:07:23.389Z,92.70
2017-09-19T22:09:50.937Z,92.80
2017-09-19T22:12:18.406Z,92.70
2017-09-19T22:14:45.957Z,92.80
2017-09-19T22:17:13.407Z,92.80
2017-09-19T22:19:40.868Z,92.80
2017-09-19T22:22:08.334Z,92.90
2017-09-19T22:24:35.892Z,92.80
2017-09-19T22:27:03.333Z,92.90
2017-09-19T22:29:30.789Z,92.90
2017-09-19T22:31:58.256Z,93.00
2017-09-19T22:34:25.706Z,93.00
2017-09-19T22:36:53.145Z,93.20
2017-09-19T22:39:20.633Z,92.90
2017-09-19T22:41:48.073Z,93.00
2017-09-19T22:44:15.555Z,93.00
2017-09-19T22:46:43.010Z,93.10
2017-09-19T22:49:10.567Z,93.10
2017-09-19T22:51:38.009Z,93.10
2017-09-19T22:54:05.475Z,93.10
2017-09-19T22:56:32.923Z,93.00
2017-09-19T22:59:00.374Z,93.00
2017-09-19T23:01:27.824Z,92.90
2017-09-19T23:03:55.274Z,92.90
2017-09-19T23:06:22.778Z,92.90
2017-09-19T23:08:50.330Z,93.20
2017-09-19T23:11:17.894Z,92.90
2017-09-19T23:13:45.449Z,92.90
2017-09-19T23:16:12.901Z,93.00
2017-09-19T23:18:40.481Z,93.00
2017-09-19T23:21:07.940Z,92.90
2017-09-19T23:23:35.395Z,93.00
2017-09-19T23:26:02.938Z,93.20
2017-09-19T23:28:30.515Z,92.90
2017-09-19T23:30:57.966Z,92.80
2017-09-19T23:33:25.467Z,93.10
2017-09-19T23:35:52.922Z,93.10
2017-09-19T23:38:20.378Z,93.10
2017-09-19T23:40:47.827Z,93.20
2017-09-19T23:43:15.326Z,93.20
2017-09-19T23:45:42.803Z,93.20
2017-09-19T23:48:10.358Z,93.70
2017-09-19T23:50:38.023Z,93.90
2017-09-19T23:53:05.479Z,94.50
2017-09-19T23:55:32.933Z,95.10
2017-09-19T23:58:00.494Z,95.50
